Time;durP1;ratioP1;P1;durP2;ratioP2;P2;SDS_P1;SDS_P2;PMS_P1;PMS_P2;Temp;Humidity;BMP_temperature;BMP_pressure;BME280_temperature;BME280_humidity;BME280_pressure;Samples;Min_cycle;Max_cycle;Signal;HPM_P1;HPM_P2
2022/08/21 00:00:22;;;;;;;;;;;;;;;17.08;56.66;97010.72;30001;983;1859;-70
2022/08/21 00:00:53;;;;;;;;;;;;;;;17.07;56.50;97009.91;30001;983;1872;-69
2022/08/21 00:01:26;;;;;;;;;;;;;;;17.07;56.64;97017.34;30001;983;1881;-68
2022/08/21 00:01:57;;;;;;;;;;;;;;;17.06;56.80;97010.25;30001;983;1877;-70
2022/08/21 00:02:29;;;;;;;;;;;;;;;17.05;56.70;97014.13;30001;983;1881;-71
2022/08/21 00:03:02;;;;;;;;;;;;;;;17.04;56.98;97013.31;30001;983;1877;-70
2022/08/21 00:03:33;;;;;;;;;;;;;;;17.05;56.55;97014.13;30001;982;1859;-68
2022/08/21 00:04:08;;;;;;;;;;;;;;;17.05;56.57;97012.19;30001;982;1850;-68
2022/08/21 00:04:39;;;;;;;;;;;;;;;17.04;57.00;97012.50;30001;982;1881;-69
2022/08/21 00:05:10;;;;;;;;;;;;;;;17.03;57.24;97017.19;30002;783;1015;-70
2022/08/21 00:05:42;;;;;;;;;;;;;;;17.06;56.80;97018.47;30001;983;1880;-69
2022/08/21 00:06:13;;;;;;;;;;;;;;;17.06;56.97;97013.00;30001;983;1854;-69
2022/08/21 00:06:44;;;;;;;;;;;;;;;17.03;57.29;97021.87;30001;983;1876;-69
2022/08/21 00:07:15;;;;;;;;;;;;;;;17.01;56.79;97016.72;30001;983;1876;-69
2022/08/21 00:07:46;;;;;;;;;;;;;;;16.99;57.05;97012.69;30001;983;1784;-71
2022/08/21 00:08:18;;;;;;;;;;;;;;;16.99;56.83;97012.69;30001;983;1876;-70
2022/08/21 00:08:50;;;;;;;;;;;;;;;16.98;56.93;97014.63;30001;983;1881;-56
2022/08/21 00:09:24;;;;;;;;;;;;;;;16.99;56.67;97009.97;30001;983;1877;-67
2022/08/21 00:09:55;;;;;;;;;;;;;;;16.98;56.97;97011.13;30001;982;1881;-70
2022/08/21 00:10:26;;;;;;;;;;;;;;;16.99;56.89;97012.69;30001;982;1877;-70
2022/08/21 00:10:57;;;;;;;;;;;;;;;16.98;57.60;97019.34;30001;982;1881;-69
2022/08/21 00:11:28;;;;;;;;;;;;;;;16.93;57.15;97014.84;30001;982;1855;-68
2022/08/21 00:11:59;;;;;;;;;;;;;;;16.91;57.37;97016.31;30001;982;1877;-71
2022/08/21 00:12:30;;;;;;;;;;;;;;;16.89;57.43;97016.66;30001;982;1877;-67
2022/08/21 00:13:03;;;;;;;;;;;;;;;16.88;57.60;97019.72;30001;982;1881;-68
2022/08/21 00:13:35;;;;;;;;;;;;;;;16.88;58.05;97017.78;30001;983;1876;-70
2022/08/21 00:14:07;;;;;;;;;;;;;;;16.88;57.93;97014.22;30001;983;1880;-70
2022/08/21 00:14:38;;;;;;;;;;;;;;;16.89;57.82;97013.91;30001;983;1876;-69
2022/08/21 00:15:10;;;;;;;;;;;;;;;16.88;58.38;97014.22;30001;983;1881;-68
2022/08/21 00:15:41;;;;;;;;;;;;;;;16.86;58.10;97006.34;30001;983;1876;-70
2022/08/21 00:16:12;;;;;;;;;;;;;;;16.84;57.89;97013.28;30001;983;1881;-68
2022/08/21 00:16:43;;;;;;;;;;;;;;;16.82;57.73;97010.06;30001;983;1855;-68
2022/08/21 00:17:14;;;;;;;;;;;;;;;16.80;57.91;97012.34;30001;983;1876;-68
2022/08/21 00:17:45;;;;;;;;;;;;;;;16.79;58.02;97005.25;30001;982;1877;-70
2022/08/21 00:18:16;;;;;;;;;;;;;;;16.78;57.72;97004.44;30001;982;1881;-69
2022/08/21 00:18:48;;;;;;;;;;;;;;;16.79;58.06;97005.25;30001;982;1877;-69
2022/08/21 00:19:19;;;;;;;;;;;;;;;16.77;58.08;97002.84;30001;982;1881;-70
2022/08/21 00:19:50;;;;;;;;;;;;;;;16.79;58.29;97011.53;30001;982;1877;-71
2022/08/21 00:20:22;;;;;;;;;;;;;;;16.78;58.12;97004.44;30001;982;1881;-69
2022/08/21 00:20:53;;;;;;;;;;;;;;;16.77;58.56;97004.78;30001;983;1876;-71
2022/08/21 00:21:25;;;;;;;;;;;;;;;16.75;58.78;97007.84;30001;983;1858;-69
2022/08/21 00:21:57;;;;;;;;;;;;;;;16.73;58.64;97004.63;30001;983;1872;-69
2022/08/21 00:22:28;;;;;;;;;;;;;;;16.71;58.51;97010.44;30001;983;1881;-69
2022/08/21 00:22:58;;;;;;;;;;;;;;;16.70;58.81;97000.59;30001;983;1876;-68
2022/08/21 00:23:30;;;;;;;;;;;;;;;16.68;58.82;97004.81;30001;983;1881;-69
2022/08/21 00:24:01;;;;;;;;;;;;;;;16.62;59.27;97001.44;30001;983;1876;-67
2022/08/21 00:24:32;;;;;;;;;;;;;;;16.58;59.75;97011.44;30001;983;1881;-70
2022/08/21 00:25:04;;;;;;;;;;;;;;;16.58;59.56;97000.47;30001;982;1877;-67
2022/08/21 00:25:35;;;;;;;;;;;;;;;16.57;59.33;96998.87;30001;982;1881;-69
2022/08/21 00:26:06;;;;;;;;;;;;;;;16.56;59.87;97008.22;30001;982;1877;-69
2022/08/21 00:26:43;;;;;;;;;;;;;;;16.56;59.82;97005.50;30001;982;1859;-69
2022/08/21 00:27:14;;;;;;;;;;;;;;;16.56;59.79;97002.75;30001;982;1872;-68
2022/08/21 00:27:46;;;;;;;;;;;;;;;16.57;59.69;96996.13;30001;983;1880;-68
2022/08/21 00:28:18;;;;;;;;;;;;;;;16.57;59.38;96998.87;30001;983;1876;-68
2022/08/21 00:28:49;;;;;;;;;;;;;;;16.58;59.10;97000.47;30001;983;1880;-71
2022/08/21 00:29:20;;;;;;;;;;;;;;;16.59;59.38;96999.34;30001;983;1876;-67
2022/08/21 00:29:53;;;;;;;;;;;;;;;16.59;59.21;97002.09;30001;983;1881;-56
2022/08/21 00:30:25;;;;;;;;;;;;;;;16.59;59.01;97004.84;30001;983;1854;-68
2022/08/21 00:30:57;;;;;;;;;;;;;;;16.60;59.30;97003.69;30001;983;1876;-68
2022/08/21 00:31:28;;;;;;;;;;;;;;;16.59;59.38;97007.56;30001;983;1876;-68
2022/08/21 00:31:59;;;;;;;;;;;;;;;16.59;59.24;97001.28;30001;983;1881;-69
2022/08/21 00:32:30;;;;;;;;;;;;;;;16.58;59.18;96995.00;30001;982;1855;-70
2022/08/21 00:33:01;;;;;;;;;;;;;;;16.58;58.93;96997.75;30001;982;1876;-67
2022/08/21 00:33:33;;;;;;;;;;;;;;;16.58;58.85;96997.75;30001;982;1877;-70
2022/08/21 00:34:04;;;;;;;;;;;;;;;16.59;58.52;96996.63;30001;982;1881;-70
2022/08/21 00:34:35;;;;;;;;;;;;;;;16.60;58.53;96997.41;30001;982;1877;-68
2022/08/21 00:35:08;;;;;;;;;;;;;;;16.59;58.47;96996.63;30001;983;1880;-68
2022/08/21 00:35:41;;;;;;;;;;;;;;;16.59;58.78;96993.88;30001;983;1876;-67
2022/08/21 00:36:13;;;;;;;;;;;;;;;16.60;58.50;96992.75;30001;983;1880;-68
2022/08/21 00:36:45;;;;;;;;;;;;;;;16.60;58.62;97000.97;30001;983;1876;-70
2022/08/21 00:37:16;;;;;;;;;;;;;;;16.60;58.50;96998.22;30001;983;1881;-69
2022/08/21 00:37:47;;;;;;;;;;;;;;;16.60;58.78;97003.69;30001;983;1854;-68
2022/08/21 00:38:19;;;;;;;;;;;;;;;16.60;58.44;96997.41;30001;983;1876;-69
2022/08/21 00:38:49;;;;;;;;;;;;;;;16.60;58.55;96994.69;30001;983;1876;-71
2022/08/21 00:39:21;;;;;;;;;;;;;;;16.59;58.69;96991.13;30001;983;1881;-68
2022/08/21 00:39:53;;;;;;;;;;;;;;;16.59;58.78;96996.63;30001;983;1855;-69
2022/08/21 00:40:29;;;;;;;;;;;;;;;16.60;58.87;96994.69;30001;982;1877;-67
2022/08/21 00:41:04;;;;;;;;;;;;;;;16.60;58.93;96998.22;30001;982;1877;-69
2022/08/21 00:41:38;;;;;;;;;;;;;;;16.58;58.85;96997.75;30001;982;1881;-69
2022/08/21 00:42:10;;;;;;;;;;;;;;;16.59;58.93;97006.78;30001;982;1877;-70
2022/08/21 00:42:41;;;;;;;;;;;;;;;16.58;59.14;96999.69;30001;983;1880;-70
2022/08/21 00:43:14;;;;;;;;;;;;;;;16.58;58.99;97002.41;30001;983;1876;-67
2022/08/21 00:43:44;;;;;;;;;;;;;;;16.57;58.75;97003.56;30001;983;1880;-69
2022/08/21 00:44:15;;;;;;;;;;;;;;;16.57;58.75;97004.34;30001;983;1876;-69
2022/08/21 00:44:47;;;;;;;;;;;;;;;16.56;58.67;97008.22;30001;983;1881;-69
2022/08/21 00:45:21;;;;;;;;;;;;;;;16.55;59.11;97001.12;30001;971;1876;-69
2022/08/21 00:45:53;;;;;;;;;;;;;;;16.59;58.59;96993.06;30001;983;1855;-69
2022/08/21 00:46:24;;;;;;;;;;;;;;;16.60;58.53;96997.41;30001;983;1876;-71
2022/08/21 00:46:55;;;;;;;;;;;;;;;16.60;58.32;96997.41;30001;983;1881;-69
2022/08/21 00:47:26;;;;;;;;;;;;;;;16.57;58.57;97004.34;30001;983;1877;-56
2022/08/21 00:47:57;;;;;;;;;;;;;;;16.54;58.42;97002.28;30001;982;1881;-71
2022/08/21 00:48:28;;;;;;;;;;;;;;;16.52;59.39;97004.53;30001;982;1877;-69
2022/08/21 00:48:59;;;;;;;;;;;;;;;16.48;60.46;97014.53;30001;982;1881;-69
2022/08/21 00:49:29;;;;;;;;;;;;;;;16.45;59.71;96998.75;30001;982;1877;-69
2022/08/21 00:50:04;;;;;;;;;;;;;;;16.43;59.47;96999.09;30001;982;1882;-69
2022/08/21 00:50:39;;;;;;;;;;;;;;;16.45;59.43;97001.50;30001;983;1876;-69
2022/08/21 00:51:22;;;;;;;;;;;;;;;16.46;58.50;96997.63;30001;983;1859;-68
2022/08/21 00:51:58;;;;;;;;;;;;;;;16.46;58.87;97005.03;30001;983;1872;-70
2022/08/21 00:52:32;;;;;;;;;;;;;;;16.45;58.49;96996.00;30001;983;1849;-71
2022/08/21 00:53:05;;;;;;;;;;;;;;;16.44;58.88;96999.88;30001;983;1876;-69
2022/08/21 00:53:37;;;;;;;;;;;;;;;16.43;59.20;96998.28;30001;983;1881;-70
2022/08/21 00:54:10;;;;;;;;;;;;;;;16.42;59.00;96993.94;30001;983;1877;-71
2022/08/21 00:54:41;;;;;;;;;;;;;;;16.41;59.24;96995.88;30001;983;1881;-71
2022/08/21 00:55:13;;;;;;;;;;;;;;;16.43;59.17;96995.53;30001;982;1876;-69
2022/08/21 00:55:44;;;;;;;;;;;;;;;16.46;58.46;97002.28;30001;982;1881;-68
2022/08/21 00:56:15;;;;;;;;;;;;;;;16.46;58.69;96992.16;30001;982;1855;-69
2022/08/21 00:56:48;;;;;;;;;;;;;;;16.45;59.31;96995.22;30001;982;1855;-68
2022/08/21 00:57:23;;;;;;;;;;;;;;;16.41;59.47;97000.53;30001;982;1877;-69
2022/08/21 00:57:57;;;;;;;;;;;;;;;16.39;59.59;97002.78;30001;983;1880;-70
2022/08/21 00:58:30;;;;;;;;;;;;;;;16.38;59.80;97001.19;30001;983;1876;-69
2022/08/21 00:59:02;;;;;;;;;;;;;;;16.36;59.39;97000.72;30001;972;1903;-68
2022/08/21 00:59:35;;;;;;;;;;;;;;;16.37;59.67;96994.91;30001;983;1876;-68
2022/08/21 01:00:10;;;;;;;;;;;;;;;16.36;59.82;96998.78;30001;983;1859;-70
2022/08/21 01:00:42;;;;;;;;;;;;;;;16.34;60.16;96997.50;30001;983;1872;-67
2022/08/21 01:01:13;;;;;;;;;;;;;;;16.32;59.87;96997.81;30001;983;1881;-69
2022/08/21 01:01:44;;;;;;;;;;;;;;;16.33;59.52;96993.94;30001;983;1877;-70
2022/08/21 01:02:16;;;;;;;;;;;;;;;16.35;59.40;96996.38;30001;982;1881;-71
2022/08/21 01:02:47;;;;;;;;;;;;;;;16.33;59.38;96993.16;30001;982;1855;-68
2022/08/21 01:03:20;;;;;;;;;;;;;;;16.33;59.61;96987.66;30001;982;1877;-70
2022/08/21 01:03:51;;;;;;;;;;;;;;;16.33;59.84;96993.16;30001;982;1877;-68
2022/08/21 01:04:23;;;;;;;;;;;;;;;16.31;60.50;96993.47;30001;982;1785;-68
2022/08/21 01:04:54;;;;;;;;;;;;;;;16.30;59.82;96994.59;30001;982;1877;-67
2022/08/21 01:05:26;;;;;;;;;;;;;;;16.30;60.17;96991.06;30001;983;1859;-69
2022/08/21 01:05:57;;;;;;;;;;;;;;;16.32;59.43;96991.53;30001;983;1872;-68
2022/08/21 01:06:28;;;;;;;;;;;;;;;16.33;59.38;96987.66;30001;983;1881;-70
2022/08/21 01:06:59;;;;;;;;;;;;;;;16.30;59.60;96994.59;30001;983;1876;-69
2022/08/21 01:07:31;;;;;;;;;;;;;;;16.28;59.82;96996.88;30001;965;1899;-70
2022/08/21 01:08:02;;;;;;;;;;;;;;;16.27;60.41;96989.00;30001;983;1876;-71
2022/08/21 01:08:34;;;;;;;;;;;;;;;16.25;60.60;96988.53;30001;983;1859;-71
2022/08/21 01:09:05;;;;;;;;;;;;;;;16.23;60.43;96985.31;30001;983;1872;-70
2022/08/21 01:09:37;;;;;;;;;;;;;;;16.22;60.18;96992.72;30001;982;1881;-69
2022/08/21 01:10:09;;;;;;;;;;;;;;;16.22;60.16;96992.72;30001;982;1877;-67
2022/08/21 01:10:40;;;;;;;;;;;;;;;16.22;60.04;96986.44;30001;982;1881;-69
2022/08/21 01:11:11;;;;;;;;;;;;;;;16.23;60.26;96990.78;30001;982;1877;-71
2022/08/21 01:11:45;;;;;;;;;;;;;;;16.23;59.97;96985.31;30001;982;1881;-71
2022/08/21 01:12:16;;;;;;;;;;;;;;;16.23;60.03;96988.84;30001;982;1877;-69
2022/08/21 01:12:47;;;;;;;;;;;;;;;16.24;60.46;96989.66;30001;983;1859;-70
2022/08/21 01:13:19;;;;;;;;;;;;;;;16.21;60.57;96985.63;30001;983;1872;-70
2022/08/21 01:13:51;;;;;;;;;;;;;;;16.20;60.56;96994.97;30001;983;1881;-69
2022/08/21 01:14:22;;;;;;;;;;;;;;;16.23;60.27;96990.78;30001;983;1876;-68
2022/08/21 01:14:53;;;;;;;;;;;;;;;16.22;59.89;96991.91;30001;983;1881;-70
2022/08/21 01:15:26;;;;;;;;;;;;;;;16.23;60.17;96997.06;30001;983;1876;-70
2022/08/21 01:15:59;;;;;;;;;;;;;;;16.25;59.67;96994.81;30001;983;1881;-71
2022/08/21 01:16:30;;;;;;;;;;;;;;;16.29;59.24;96992.19;30001;983;1876;-69
2022/08/21 01:17:02;;;;;;;;;;;;;;;16.27;59.28;96984.34;30001;982;1881;-68
2022/08/21 01:17:34;;;;;;;;;;;;;;;16.27;59.62;96991.75;30001;982;1855;-69
2022/08/21 01:18:07;;;;;;;;;;;;;;;16.25;60.22;96996.75;30001;982;1877;-69
2022/08/21 01:18:38;;;;;;;;;;;;;;;16.22;60.62;96991.91;30001;982;1877;-57
2022/08/21 01:19:09;;;;;;;;;;;;;;;16.21;60.59;96993.03;30001;982;1881;-68
2022/08/21 01:19:40;;;;;;;;;;;;;;;16.20;60.45;96991.44;30001;982;1877;-68
2022/08/21 01:20:11;;;;;;;;;;;;;;;16.19;60.09;96987.09;30001;982;1881;-70
2022/08/21 01:20:44;;;;;;;;;;;;;;;16.16;60.35;96993.22;30001;983;1876;-70
2022/08/21 01:21:17;;;;;;;;;;;;;;;16.16;60.19;96987.75;30001;983;1881;-70
2022/08/21 01:21:49;;;;;;;;;;;;;;;16.17;59.94;96990.16;30001;983;1876;-68
2022/08/21 01:22:20;;;;;;;;;;;;;;;16.17;60.02;96994.81;30001;983;1881;-69
2022/08/21 01:22:51;;;;;;;;;;;;;;;16.14;60.69;96995.47;30001;983;1855;-69
2022/08/21 01:23:22;;;;;;;;;;;;;;;16.11;60.18;96988.72;30001;983;1854;-68
2022/08/21 01:23:54;;;;;;;;;;;;;;;16.11;60.79;96993.38;30001;983;1877;-68
2022/08/21 01:24:25;;;;;;;;;;;;;;;16.08;61.06;96992.09;30001;983;1881;-68
2022/08/21 01:24:56;;;;;;;;;;;;;;;16.02;61.09;96994.19;30001;982;1877;-71
2022/08/21 01:25:27;;;;;;;;;;;;;;;16.01;61.14;96991.78;30001;982;1881;-70
2022/08/21 01:25:58;;;;;;;;;;;;;;;16.00;61.39;96990.97;30001;982;1877;-56
2022/08/21 01:26:31;;;;;;;;;;;;;;;15.99;61.78;96989.38;30001;982;1881;-70
2022/08/21 01:27:02;;;;;;;;;;;;;;;15.97;62.26;96993.56;30001;982;1855;-70
2022/08/21 01:27:34;;;;;;;;;;;;;;;15.92;62.59;96994.56;30001;982;1855;-71
2022/08/21 01:28:10;;;;;;;;;;;;;;;15.89;62.20;96997.94;30001;983;1876;-70
2022/08/21 01:28:46;;;;;;;;;;;;;;;15.91;63.21;96992.16;30001;983;1881;-69
2022/08/21 01:29:28;;;;;;;;;;;;;;;15.88;62.23;96990.87;30001;983;1854;-69
2022/08/21 01:30:09;;;;;;;;;;;;;;;15.90;61.78;96990.53;30001;983;1876;-70
2022/08/21 01:30:42;;;;;;;;;;;;;;;15.92;61.68;96994.56;30001;983;1877;-71
2022/08/21 01:31:14;;;;;;;;;;;;;;;15.92;61.30;96988.28;30001;983;1881;-70
2022/08/21 01:31:46;;;;;;;;;;;;;;;15.93;61.45;96990.69;30001;983;1877;-72
2022/08/21 01:32:17;;;;;;;;;;;;;;;15.95;61.28;96991.16;30001;984;1859;-70
2022/08/21 01:32:48;;;;;;;;;;;;;;;15.95;61.50;96993.88;30001;982;1872;-71
2022/08/21 01:33:22;;;;;;;;;;;;;;;15.97;61.04;96991.63;30001;982;1881;-68
2022/08/21 01:33:53;;;;;;;;;;;;;;;15.98;61.03;96998.72;30001;982;1855;-69
2022/08/21 01:34:24;;;;;;;;;;;;;;;15.98;61.16;96986.97;30001;982;1877;-71
2022/08/21 01:34:55;;;;;;;;;;;;;;;15.99;61.41;96989.38;30001;983;1876;-69
2022/08/21 01:35:26;;;;;;;;;;;;;;;15.99;60.92;96989.38;30001;983;1880;-69
2022/08/21 01:35:57;;;;;;;;;;;;;;;16.03;60.91;96984.88;30001;983;1876;-68
2022/08/21 01:36:31;;;;;;;;;;;;;;;16.05;60.50;96977.13;30001;983;1881;-67
2022/08/21 01:37:02;;;;;;;;;;;;;;;16.03;61.15;96984.88;30001;983;1876;-57
2022/08/21 01:37:33;;;;;;;;;;;;;;;16.02;60.74;96988.72;30001;983;1881;-67
2022/08/21 01:38:04;;;;;;;;;;;;;;;16.02;60.74;96991.47;30001;983;1854;-72
2022/08/21 01:38:35;;;;;;;;;;;;;;;16.01;61.34;96986.31;30001;983;1876;-71
2022/08/21 01:39:07;;;;;;;;;;;;;;;16.01;61.45;96980.84;30001;983;1877;-68
2022/08/21 01:39:39;;;;;;;;;;;;;;;16.00;61.31;96990.97;30001;982;1881;-70
2022/08/21 01:40:11;;;;;;;;;;;;;;;16.01;61.28;96986.31;30001;982;1855;-70
2022/08/21 01:40:41;;;;;;;;;;;;;;;16.00;61.31;96980.03;30001;982;1877;-71
2022/08/21 01:41:14;;;;;;;;;;;;;;;15.99;61.31;96983.09;30001;982;1855;-67
2022/08/21 01:41:45;;;;;;;;;;;;;;;15.94;61.69;96986.81;30001;982;1855;-56
2022/08/21 01:42:16;;;;;;;;;;;;;;;15.93;61.60;96979.75;30001;983;1876;-71
2022/08/21 01:42:50;;;;;;;;;;;;;;;15.94;61.44;96980.56;30001;983;1880;-69
2022/08/21 01:43:24;;;;;;;;;;;;;;;15.96;61.58;96984.53;30001;983;1876;-69
2022/08/21 01:43:55;;;;;;;;;;;;;;;15.96;61.08;96984.53;30001;964;1899;-57
2022/08/21 01:44:26;;;;;;;;;;;;;;;15.97;61.17;96979.88;30001;983;1854;-69
2022/08/21 01:44:57;;;;;;;;;;;;;;;15.96;61.40;96984.53;30001;983;1876;-71
2022/08/21 01:45:28;;;;;;;;;;;;;;;15.97;61.69;96982.63;30001;983;1876;-68
2022/08/21 01:45:59;;;;;;;;;;;;;;;15.95;61.62;96982.94;30001;983;1881;-68
2022/08/21 01:46:31;;;;;;;;;;;;;;;15.94;62.08;96978.59;30001;983;1877;-69
2022/08/21 01:47:03;;;;;;;;;;;;;;;15.92;62.09;96983.63;30001;983;1881;-69
2022/08/21 01:47:35;;;;;;;;;;;;;;;15.93;62.06;96985.22;30001;982;1855;-70
2022/08/21 01:48:06;;;;;;;;;;;;;;;15.93;61.71;96979.75;30001;982;1877;-69
2022/08/21 01:48:37;;;;;;;;;;;;;;;15.93;61.50;96981.69;30001;982;1877;-71
2022/08/21 01:49:08;;;;;;;;;;;;;;;15.92;61.56;96977.34;30001;982;1881;-70
2022/08/21 01:49:40;;;;;;;;;;;;;;;15.93;61.85;96982.50;30001;983;1876;-70
2022/08/21 01:50:14;;;;;;;;;;;;;;;15.92;61.58;96977.34;30001;983;1880;-68
2022/08/21 01:50:46;;;;;;;;;;;;;;;15.92;61.85;96980.06;30001;983;1876;-70
2022/08/21 01:51:21;;;;;;;;;;;;;;;15.91;61.22;96979.28;30001;983;1881;-68
2022/08/21 01:51:55;;;;;;;;;;;;;;;15.89;61.95;96976.06;30001;983;1876;-71
2022/08/21 01:52:25;;;;;;;;;;;;;;;15.87;61.85;96974.78;30001;969;1904;-71
2022/08/21 01:52:57;;;;;;;;;;;;;;;15.88;61.64;96970.91;30001;983;1854;-69
2022/08/21 01:53:28;;;;;;;;;;;;;;;15.89;61.72;96984.25;30001;983;1876;-69
2022/08/21 01:53:59;;;;;;;;;;;;;;;15.89;61.86;96983.47;30001;983;1876;-56
2022/08/21 01:54:30;;;;;;;;;;;;;;;15.90;62.10;96977.66;30001;983;1881;-70
2022/08/21 01:55:01;;;;;;;;;;;;;;;15.87;62.01;96972.84;30001;982;1855;-70
2022/08/21 01:55:33;;;;;;;;;;;;;;;15.85;62.19;96977.84;30001;982;1877;-70
2022/08/21 01:56:06;;;;;;;;;;;;;;;15.84;62.54;96975.41;30001;982;1855;-71
2022/08/21 01:56:41;;;;;;;;;;;;;;;15.83;62.24;96982.00;30001;982;1877;-69
2022/08/21 01:57:12;;;;;;;;;;;;;;;15.83;62.62;96969.13;30001;983;1876;-68
2022/08/21 01:57:43;;;;;;;;;;;;;;;15.83;62.87;96971.06;30001;983;1880;-71
2022/08/21 01:58:17;;;;;;;;;;;;;;;15.80;63.08;96969.78;30001;983;1876;-71
2022/08/21 01:58:48;;;;;;;;;;;;;;;15.76;62.86;96979.75;30001;983;1881;-71
2022/08/21 01:59:21;;;;;;;;;;;;;;;15.75;62.79;96983.63;30001;983;1876;-68
2022/08/21 01:59:51;;;;;;;;;;;;;;;15.74;62.64;96969.16;30001;983;1859;-68
2022/08/21 02:00:23;;;;;;;;;;;;;;;15.80;62.22;96969.78;30001;983;1872;-70
2022/08/21 02:00:54;;;;;;;;;;;;;;;15.81;62.14;96971.41;30001;983;1881;-68
2022/08/21 02:01:25;;;;;;;;;;;;;;;15.81;62.08;96971.41;30001;969;1889;-69
2022/08/21 02:01:56;;;;;;;;;;;;;;;15.81;62.69;96968.66;30001;982;1881;-68
2022/08/21 02:02:26;;;;;;;;;;;;;;;15.80;62.78;96968.97;30001;982;1876;-69
2022/08/21 02:02:57;;;;;;;;;;;;;;;15.77;63.66;96970.44;30001;982;1859;-71
2022/08/21 02:03:29;;;;;;;;;;;;;;;15.75;63.21;96967.22;30001;982;1872;-56
2022/08/21 02:04:00;;;;;;;;;;;;;;;15.72;62.97;96963.19;30001;982;1881;-57
2022/08/21 02:04:31;;;;;;;;;;;;;;;15.71;62.83;96966.25;30001;982;1877;-70
2022/08/21 02:05:03;;;;;;;;;;;;;;;15.70;62.67;96970.91;30001;983;1880;-69
2022/08/21 02:05:34;;;;;;;;;;;;;;;15.68;62.53;96966.91;30001;983;1876;-68
2022/08/21 02:06:06;;;;;;;;;;;;;;;15.70;62.40;96970.91;30001;983;1880;-69
2022/08/21 02:06:37;;;;;;;;;;;;;;;15.72;62.41;96973.34;30001;983;1854;-69
2022/08/21 02:07:08;;;;;;;;;;;;;;;15.72;62.59;96962.38;30001;983;1876;-70
2022/08/21 02:07:42;;;;;;;;;;;;;;;15.74;62.80;96960.13;30001;983;1876;-67
2022/08/21 02:08:13;;;;;;;;;;;;;;;15.74;62.48;96960.94;30001;983;1881;-68
2022/08/21 02:08:44;;;;;;;;;;;;;;;15.76;62.72;96955.16;30001;983;1877;-70
2022/08/21 02:09:15;;;;;;;;;;;;;;;15.78;62.37;96965.75;30001;982;1881;-70
2022/08/21 02:09:46;;;;;;;;;;;;;;;15.79;62.43;96956.44;30001;982;1877;-70
2022/08/21 02:10:22;;;;;;;;;;;;;;;15.78;62.95;96955.62;30001;986;1864;-68
2022/08/21 02:10:54;;;;;;;;;;;;;;;15.78;63.03;96960.28;30001;985;1872;-71
2022/08/21 02:11:25;;;;;;;;;;;;;;;15.77;63.24;96954.03;30001;961;1902;-69
2022/08/21 02:11:56;;;;;;;;;;;;;;;15.77;63.08;96959.50;30001;982;1877;-69
2022/08/21 02:12:27;;;;;;;;;;;;;;;15.78;62.71;96963.03;30001;983;1880;-68
2022/08/21 02:13:00;;;;;;;;;;;;;;;15.78;62.78;96958.38;30001;983;1876;-71
2022/08/21 02:13:31;;;;;;;;;;;;;;;15.77;62.55;96954.03;30001;983;1880;-68
2022/08/21 02:14:02;;;;;;;;;;;;;;;15.79;62.84;96959.97;30001;983;1876;-67
2022/08/21 02:14:33;;;;;;;;;;;;;;;15.81;62.20;96949.50;30001;983;1881;-68
2022/08/21 02:15:04;;;;;;;;;;;;;;;15.82;62.19;96958.53;30001;983;1854;-69
2022/08/21 02:15:36;;;;;;;;;;;;;;;15.81;62.29;96963.19;30001;983;1876;-70
2022/08/21 02:16:07;;;;;;;;;;;;;;;15.81;62.51;96954.97;30001;983;1877;-68
2022/08/21 02:16:39;;;;;;;;;;;;;;;15.80;62.18;96958.84;30001;982;1881;-70
2022/08/21 02:17:10;;;;;;;;;;;;;;;15.81;62.89;96959.66;30001;982;1877;-68
2022/08/21 02:17:43;;;;;;;;;;;;;;;15.78;62.77;96966.56;30001;982;1881;-68
2022/08/21 02:18:14;;;;;;;;;;;;;;;15.77;63.00;96956.75;30001;982;1877;-70
2022/08/21 02:18:45;;;;;;;;;;;;;;;15.76;63.21;96957.88;30001;982;1859;-56
2022/08/21 02:19:16;;;;;;;;;;;;;;;15.73;63.35;96953.84;30001;982;1873;-69
2022/08/21 02:19:47;;;;;;;;;;;;;;;15.72;62.92;96954.19;30001;982;1881;-68
2022/08/21 02:20:25;;;;;;;;;;;;;;;15.72;63.26;96954.19;30001;983;1876;-71
2022/08/21 02:20:56;;;;;;;;;;;;;;;15.72;63.06;96951.44;30001;983;1880;-70
2022/08/21 02:21:27;;;;;;;;;;;;;;;15.72;63.07;96952.25;30001;983;1876;-71
2022/08/21 02:21:58;;;;;;;;;;;;;;;15.73;63.04;96953.84;30001;983;1881;-70
2022/08/21 02:22:29;;;;;;;;;;;;;;;15.73;63.47;96958.53;30001;983;1876;-69
2022/08/21 02:23:00;;;;;;;;;;;;;;;15.73;63.16;96964.00;30001;983;1881;-70
2022/08/21 02:23:32;;;;;;;;;;;;;;;15.74;63.65;96960.13;30001;983;1877;-69
2022/08/21 02:24:04;;;;;;;;;;;;;;;15.74;63.11;96957.41;30001;982;1859;-68
2022/08/21 02:24:36;;;;;;;;;;;;;;;15.76;63.30;96957.88;30001;982;1872;-69
2022/08/21 02:25:07;;;;;;;;;;;;;;;15.76;62.98;96957.88;30001;982;1881;-68
2022/08/21 02:25:38;;;;;;;;;;;;;;;15.78;62.84;96955.62;30001;982;1877;-70
2022/08/21 02:26:09;;;;;;;;;;;;;;;15.78;63.00;96952.87;30001;982;1881;-68
2022/08/21 02:26:40;;;;;;;;;;;;;;;15.77;63.63;96950.47;30001;982;1877;-68
2022/08/21 02:27:11;;;;;;;;;;;;;;;15.75;63.09;96950.81;30001;982;1881;-69
2022/08/21 02:27:43;;;;;;;;;;;;;;;15.74;63.04;96960.94;30001;983;1876;-69
2022/08/21 02:28:15;;;;;;;;;;;;;;;15.74;63.14;96957.41;30001;983;1881;-72
2022/08/21 02:28:46;;;;;;;;;;;;;;;15.73;63.23;96961.25;30001;983;1876;-69
2022/08/21 02:29:18;;;;;;;;;;;;;;;15.70;62.96;96954.50;30001;983;1859;-69
2022/08/21 02:29:48;;;;;;;;;;;;;;;15.70;63.30;96959.16;30001;983;1872;-72
2022/08/21 02:30:23;;;;;;;;;;;;;;;15.71;63.16;96960.78;30001;983;1881;-70
2022/08/21 02:30:54;;;;;;;;;;;;;;;15.75;62.72;96961.75;30001;983;1877;-68
2022/08/21 02:31:26;;;;;;;;;;;;;;;15.74;62.33;96949.19;30001;983;1881;-71
2022/08/21 02:32:01;;;;;;;;;;;;;;;15.72;62.36;96945.97;30001;975;1896;-70
2022/08/21 02:32:32;;;;;;;;;;;;;;;15.73;62.48;96958.53;30001;982;1881;-68
2022/08/21 02:33:04;;;;;;;;;;;;;;;15.73;62.57;96958.53;30001;982;1877;-71
2022/08/21 02:33:35;;;;;;;;;;;;;;;15.72;62.34;96952.25;30001;982;1859;-70
2022/08/21 02:34:06;;;;;;;;;;;;;;;15.71;62.22;96960.78;30001;983;1872;-69
2022/08/21 02:34:37;;;;;;;;;;;;;;;15.67;62.42;96955.16;30001;983;1880;-70
2022/08/21 02:35:09;;;;;;;;;;;;;;;15.68;62.61;96950.47;30001;983;1876;-68
2022/08/21 02:35:41;;;;;;;;;;;;;;;15.69;62.77;96954.81;30001;983;1863;-68
2022/08/21 02:36:12;;;;;;;;;;;;;;;15.68;62.56;96947.75;30001;983;1876;-71
2022/08/21 02:36:46;;;;;;;;;;;;;;;15.68;62.48;96945.00;30001;983;1885;-69
2022/08/21 02:37:17;;;;;;;;;;;;;;;15.69;63.55;96946.63;30001;983;1881;-68
2022/08/21 02:37:50;;;;;;;;;;;;;;;15.65;63.15;96954.66;30001;983;1885;-68
2022/08/21 02:38:23;;;;;;;;;;;;;;;15.62;63.61;96949.03;30001;983;1881;-70
2022/08/21 02:38:54;;;;;;;;;;;;;;;15.59;63.49;96957.91;30001;983;1863;-69
2022/08/21 02:39:25;;;;;;;;;;;;;;;15.56;63.43;96958.53;30001;982;1877;-70
2022/08/21 02:39:55;;;;;;;;;;;;;;;15.53;63.32;96959.19;30001;982;1885;-71
2022/08/21 02:40:35;;;;;;;;;;;;;;;15.53;63.63;96957.25;30001;982;1859;-71
2022/08/21 02:41:08;;;;;;;;;;;;;;;15.53;63.72;96950.97;30001;969;1902;-71
2022/08/21 02:41:38;;;;;;;;;;;;;;;15.53;63.41;96953.72;30001;983;1881;-56
2022/08/21 02:42:09;;;;;;;;;;;;;;;15.52;63.56;96957.56;30001;983;1804;-71
2022/08/21 02:42:43;;;;;;;;;;;;;;;15.52;63.51;96955.62;30001;983;1880;-70
2022/08/21 02:43:15;;;;;;;;;;;;;;;15.52;63.39;96955.62;30001;983;1885;-69
2022/08/21 02:43:46;;;;;;;;;;;;;;;15.53;63.71;96951.78;30001;983;1880;-71
2022/08/21 02:44:18;;;;;;;;;;;;;;;15.53;63.57;96959.97;30001;983;1885;-68
2022/08/21 02:44:49;;;;;;;;;;;;;;;15.53;63.44;96954.50;30001;983;1881;-69
2022/08/21 02:45:22;;;;;;;;;;;;;;;15.53;63.36;96959.19;30001;983;1885;-69
2022/08/21 02:45:54;;;;;;;;;;;;;;;15.51;63.78;96955.97;30001;983;1859;-69
2022/08/21 02:46:25;;;;;;;;;;;;;;;15.52;63.58;96952.09;30001;983;1881;-70
2022/08/21 02:46:58;;;;;;;;;;;;;;;15.51;63.68;96958.69;30001;982;1881;-70
2022/08/21 02:47:28;;;;;;;;;;;;;;;15.49;64.07;96948.06;30001;982;1885;-70
2022/08/21 02:48:01;;;;;;;;;;;;;;;15.50;64.46;96955.16;30001;982;1881;-69
2022/08/21 02:48:33;;;;;;;;;;;;;;;15.49;63.98;96952.75;30001;982;1886;-71
2022/08/21 02:49:04;;;;;;;;;;;;;;;15.49;64.41;96963.69;30001;982;1881;-72
2022/08/21 02:49:35;;;;;;;;;;;;;;;15.50;63.97;96954.34;30001;983;1884;-68
2022/08/21 02:50:06;;;;;;;;;;;;;;;15.50;64.31;96957.09;30001;983;1880;-71
2022/08/21 02:50:41;;;;;;;;;;;;;;;15.50;64.07;96957.09;30001;983;1863;-70